createdAt,value
2019-04-27T07:37:58.781Z,241.875
2019-04-27T07:41:29.088Z,230.625
2019-04-27T07:44:59.343Z,236.25
2019-04-27T07:48:28.519Z,275.625
2019-04-27T07:51:58.944Z,258.75
2019-04-27T07:55:28.744Z,225
2019-04-27T07:58:57.393Z,241.875
2019-04-27T08:02:28.896Z,241.875
2019-04-27T08:05:58.797Z,264.375
2019-04-27T08:09:28.966Z,258.75
2019-04-27T08:12:57.051Z,236.25
2019-04-27T08:16:28.851Z,281.25
2019-04-27T08:19:56.872Z,298.125
2019-04-27T08:23:26.795Z,354.375
2019-04-27T08:26:56.695Z,382.5
2019-04-27T08:30:26.655Z,337.5
2019-04-27T08:33:58.261Z,331.875
2019-04-27T08:37:28.488Z,421.875
2019-04-27T08:40:56.776Z,489.375
2019-04-27T08:44:29.176Z,506.25
2019-04-27T08:47:59.436Z,511.875
2019-04-27T08:51:29.091Z,466.875
2019-04-27T08:54:59.261Z,444.375
2019-04-27T08:58:28.593Z,466.875
2019-04-27T09:01:58.691Z,466.875
2019-04-27T09:05:28.876Z,495
2019-04-27T09:08:59.257Z,489.375
2019-04-27T09:12:29.387Z,472.5
2019-04-27T09:15:59.844Z,506.25
2019-04-27T09:19:29.146Z,523.125
2019-04-27T09:22:59.211Z,478.125
2019-04-27T09:26:28.630Z,528.75
2019-04-27T09:29:59.022Z,405
2019-04-27T09:33:27.765Z,450
2019-04-27T09:36:58.752Z,568.125
2019-04-27T09:40:29.744Z,613.125
2019-04-27T09:44:02.398Z,511.875
2019-04-27T09:47:30.578Z,495
2019-04-27T09:51:00.543Z,765
2019-04-27T09:54:31.522Z,1136.25
2019-04-27T09:58:02.519Z,663.75
2019-04-27T10:01:32.526Z,686.25
2019-04-27T10:05:02.582Z,607.5
2019-04-27T10:08:32.512Z,725.625
2019-04-27T10:12:02.461Z,2913.75
2019-04-27T10:15:32.489Z,3324.375
2019-04-27T10:19:02.543Z,1175.625
2019-04-27T10:22:40.936Z,866.25
2019-04-27T10:26:08.567Z,855
2019-04-27T10:29:39.724Z,843.75
2019-04-27T10:33:10.661Z,545.625
2019-04-27T10:36:41.254Z,495
2019-04-27T10:40:11.261Z,725.625
2019-04-27T10:43:41.243Z,798.75
2019-04-27T10:47:11.262Z,832.5
2019-04-27T10:50:41.200Z,703.125
2019-04-27T10:54:11.114Z,736.875
2019-04-27T10:57:41.029Z,1136.25
2019-04-27T11:01:10.954Z,978.75
2019-04-27T11:04:40.859Z,618.75
2019-04-27T11:08:11.768Z,973.125
2019-04-27T11:11:41.734Z,680.625
2019-04-27T11:15:11.692Z,579.375
2019-04-27T11:18:41.599Z,517.5
2019-04-27T11:22:11.528Z,590.625
2019-04-27T11:25:41.449Z,1051.875
2019-04-27T11:29:11.365Z,753.75
2019-04-27T11:32:41.298Z,776.25
2019-04-27T11:36:14.838Z,658.125
2019-04-27T11:39:42.104Z,607.5
2019-04-27T11:43:12.018Z,607.5
2019-04-27T11:46:41.937Z,585
2019-04-27T11:50:11.919Z,585
2019-04-27T11:53:41.789Z,613.125
2019-04-27T11:57:11.708Z,523.125
2019-04-27T12:00:41.641Z,528.75
2019-04-27T12:04:11.560Z,540
2019-04-27T12:07:41.486Z,489.375
2019-04-27T12:11:11.405Z,517.5
2019-04-27T12:14:41.321Z,511.875
2019-04-27T12:18:12.274Z,669.375
2019-04-27T12:21:42.198Z,781.875
2019-04-27T12:25:12.117Z,1006.875
2019-04-27T12:28:42.025Z,1501.875
2019-04-27T12:32:11.946Z,1507.5
2019-04-27T12:35:41.868Z,787.5
2019-04-27T12:39:11.796Z,613.125
2019-04-27T12:42:42.702Z,579.375
2019-04-27T12:46:12.695Z,585
2019-04-27T12:49:42.632Z,641.25
2019-04-27T12:53:12.528Z,590.625
2019-04-27T12:56:43.441Z,528.75
2019-04-27T13:00:13.382Z,556.875
2019-04-27T13:03:43.263Z,849.375
2019-04-27T13:07:13.170Z,1136.25
2019-04-27T13:10:43.090Z,703.125
2019-04-27T13:14:13.031Z,894.375
2019-04-27T13:17:43.135Z,967.5
2019-04-27T13:21:13.063Z,1096.875
2019-04-27T13:24:42.969Z,590.625
2019-04-27T13:28:12.922Z,613.125
2019-04-27T13:31:43.830Z,568.125
2019-04-27T13:35:15.638Z,438.75
2019-04-27T13:38:43.704Z,393.75
2019-04-27T13:42:15.615Z,399.375
2019-04-27T13:45:46.418Z,461.25
2019-04-27T13:49:17.548Z,556.875
2019-04-27T13:52:46.548Z,534.375
2019-04-27T13:56:14.935Z,517.5
2019-04-27T13:59:45.992Z,540
2019-04-27T14:03:20.811Z,534.375
2019-04-27T14:06:49.415Z,635.625
2019-04-27T14:10:22.957Z,720
2019-04-27T14:13:54.122Z,646.875
2019-04-27T14:17:24.257Z,540
2019-04-27T14:20:55.604Z,686.25
2019-04-27T14:24:31.843Z,596.25
2019-04-27T14:28:00.472Z,556.875
2019-04-27T14:31:31.515Z,511.875
2019-04-27T14:35:02.496Z,545.625
2019-04-27T14:38:32.441Z,534.375
2019-04-27T14:42:03.399Z,511.875
2019-04-27T14:45:33.445Z,495
2019-04-27T14:49:03.422Z,523.125
2019-04-27T14:52:33.376Z,562.5
2019-04-27T14:56:04.331Z,860.625
2019-04-27T14:59:34.284Z,607.5
2019-04-27T15:03:04.235Z,421.875
2019-04-27T15:06:36.176Z,348.75
2019-04-27T15:10:08.144Z,376.875
2019-04-27T15:13:47.884Z,517.5
2019-04-27T15:17:23.087Z,444.375
2019-04-27T15:20:51.502Z,427.5
2019-04-27T15:24:20.902Z,421.875
2019-04-27T15:27:51.878Z,635.625
2019-04-27T15:31:26.948Z,427.5
2019-04-27T15:34:58.690Z,388.125
2019-04-27T15:38:28.656Z,331.875
2019-04-27T15:42:01.688Z,343.125
2019-04-27T15:45:28.883Z,348.75
2019-04-27T15:49:02.971Z,320.625
2019-04-27T15:52:33.861Z,303.75
2019-04-27T15:56:04.884Z,298.125
2019-04-27T15:59:40.885Z,292.5
2019-04-27T16:03:10.702Z,253.125
2019-04-27T16:06:47.417Z,196.875
2019-04-27T16:10:15.497Z,168.75
2019-04-27T16:13:45.403Z,163.125
2019-04-27T16:17:15.359Z,157.5
2019-04-27T16:20:45.353Z,157.5
2019-04-27T16:24:21.100Z,196.875
2019-04-27T16:27:50.394Z,213.75
2019-04-27T16:31:24.730Z,146.25
2019-04-27T16:34:54.267Z,118.125
2019-04-27T16:38:26.614Z,118.125
2019-04-27T16:41:55.313Z,140.625
2019-04-27T16:45:28.275Z,151.875
2019-04-27T16:49:00.551Z,118.125
2019-04-27T16:52:32.600Z,112.5
2019-04-27T16:56:14.113Z,106.875
2019-04-27T16:59:46.114Z,95.625
2019-04-27T17:03:13.336Z,90
2019-04-27T17:06:49.256Z,90
2019-04-27T17:10:25.181Z,78.75
2019-04-27T17:13:54.075Z,67.5
2019-04-27T17:17:24.025Z,67.5
2019-04-27T17:21:00.967Z,61.875
2019-04-27T17:24:33.330Z,56.25
2019-04-27T17:28:05.748Z,50.625
2019-04-27T17:31:38.096Z,50.625
2019-04-27T17:35:14.661Z,50.625
2019-04-27T17:38:47.167Z,50.625
2019-04-27T17:42:14.691Z,39.375
2019-04-27T17:45:44.683Z,33.75
2019-04-27T17:49:14.766Z,33.75
2019-04-27T17:52:48.348Z,28.125
2019-04-27T17:56:15.914Z,28.125
2019-04-27T17:59:49.735Z,28.125
2019-04-27T18:03:21.119Z,22.5
2019-04-27T18:06:50.894Z,22.5
2019-04-27T18:10:24.850Z,16.875
2019-04-27T18:14:00.267Z,16.875
2019-04-27T18:17:29.771Z,16.875
2019-04-27T18:20:59.739Z,11.25
2019-04-27T18:24:30.695Z,11.25
2019-04-27T18:28:01.819Z,5.625
2019-04-27T18:31:32.766Z,5.625
2019-04-27T18:35:02.943Z,0
2019-04-27T18:38:38.660Z,0
2019-04-27T18:42:08.660Z,0
2019-04-27T18:45:44.690Z,0
2019-04-27T18:49:11.059Z,0
2019-04-27T18:52:47.621Z,0
2019-04-27T18:56:15.098Z,0
2019-04-27T18:59:45.075Z,0
2019-04-27T19:03:15.021Z,0
2019-04-27T19:06:45.007Z,0
2019-04-27T19:10:15.203Z,0
2019-04-27T19:13:45.070Z,0
2019-04-27T19:17:15.190Z,0
2019-04-27T19:20:45.520Z,0
2019-04-27T19:24:15.589Z,0
2019-04-27T19:27:48.351Z,0
2019-04-27T19:31:16.508Z,0
2019-04-27T19:34:47.961Z,0
2019-04-27T19:38:16.498Z,0
2019-04-27T19:41:57.764Z,0
2019-04-27T19:45:22.588Z,0
2019-04-27T19:48:53.598Z,0
2019-04-27T19:52:24.532Z,0
2019-04-27T19:55:54.499Z,0
2019-04-27T19:59:24.688Z,0
2019-04-27T20:02:54.763Z,0
2019-04-27T20:06:24.749Z,0
2019-04-27T20:09:54.714Z,0
2019-04-27T20:13:25.616Z,0
2019-04-27T20:16:55.544Z,0
2019-04-27T20:20:25.475Z,0
2019-04-27T20:23:55.503Z,0
2019-04-27T20:27:25.540Z,0
2019-04-27T20:30:55.447Z,0
2019-04-27T20:34:26.713Z,0
2019-04-27T20:37:56.640Z,0
2019-04-27T20:41:26.573Z,0
2019-04-27T20:44:57.489Z,0
2019-04-27T20:48:27.380Z,0
2019-04-27T20:51:57.294Z,0
2019-04-27T20:55:27.277Z,0
2019-04-27T20:58:57.194Z,0
2019-04-27T21:02:28.126Z,0
2019-04-27T21:05:58.049Z,0
2019-04-27T21:09:27.944Z,0
2019-04-27T21:12:57.864Z,0
2019-04-27T21:16:27.779Z,0
2019-04-27T21:19:57.678Z,0
2019-04-27T21:23:27.596Z,0
2019-04-27T21:26:57.567Z,0
2019-04-27T21:30:27.485Z,0
2019-04-27T21:33:57.423Z,0
2019-04-27T21:37:28.327Z,0
2019-04-27T21:40:58.249Z,0
2019-04-27T21:44:28.160Z,0
2019-04-27T21:47:58.077Z,0
2019-04-27T21:51:28.015Z,0
2019-04-27T21:54:57.923Z,0
2019-04-27T21:58:33.281Z,0
2019-04-27T22:02:02.691Z,0
2019-04-27T22:05:33.590Z,0
2019-04-27T22:09:04.495Z,0
2019-04-27T22:12:35.408Z,0
2019-04-27T22:16:05.367Z,0
2019-04-27T22:19:35.275Z,0
2019-04-27T22:23:06.194Z,0
2019-04-27T22:26:36.115Z,0
2019-04-27T22:30:06.071Z,0
2019-04-27T22:33:36.030Z,0
2019-04-27T22:37:06.938Z,0
2019-04-27T22:40:36.894Z,0
2019-04-27T22:44:06.804Z,0
2019-04-27T22:47:36.722Z,0
2019-04-27T22:51:06.648Z,0
2019-04-27T22:54:36.596Z,0
2019-04-27T22:58:06.545Z,0
2019-04-27T23:01:36.491Z,0
2019-04-27T23:05:06.404Z,0
2019-04-27T23:08:36.331Z,0
2019-04-27T23:12:06.283Z,0
2019-04-27T23:15:36.331Z,0
2019-04-27T23:19:06.150Z,0
2019-04-27T23:22:36.073Z,0
2019-04-27T23:26:05.993Z,0
2019-04-27T23:29:36.893Z,0
2019-04-27T23:33:06.853Z,0
2019-04-27T23:36:36.770Z,0
2019-04-27T23:40:06.675Z,0
2019-04-27T23:43:36.582Z,0
2019-04-27T23:47:06.505Z,0
2019-04-27T23:50:36.426Z,0
2019-04-27T23:54:06.369Z,0
2019-04-27T23:57:36.302Z,0
